X  Fechar Dados meteorológicos de METAR da aviação     EDTY Adolf Würth Airport
Temperatura
13°C Temperatura
12°C Ponto de orvalho
94% Umidade



Vento
6 MPH
10 KM/H
3 M/S
5 NÓS



200°
SSO
Condições atuais

Limpo Limpo
Pressão 1008.81 (hPa) - 29.79 (inHg)
Visibilidade 6 (milha) - 9.7 (km)
Aeroporto
Código do aeroporto EDTY

Localização: Adolf Würth Airport
Distância: 59 (mi)

Metar:
EDTY 150620Z 20005KT 160V240 CAVOK 13/12 Q1009

Hora: 15-06-2024 08:20 CEST